Time;durP1;ratioP1;P1;durP2;ratioP2;P2;SDS_P1;SDS_P2;PMS_P1;PMS_P2;Temp;Humidity;BMP_temperature;BMP_pressure;BME280_temperature;BME280_humidity;BME280_pressure;Samples;Min_cycle;Max_cycle;Signal;HPM_P1;HPM_P2
2022/08/11 00:01:16;;;;;;;0.00;0.00;;;17.60;99.90;226.50;231333.00;;;;5033275;28;20656;-73
2022/08/11 00:03:50;;;;;;;0.00;0.00;;;17.70;99.90;226.50;231333.00;;;;5033448;28;20218;-73
2022/08/11 00:06:26;;;;;;;0.00;0.00;;;17.60;99.90;226.50;231333.00;;;;5033367;28;20701;-72
2022/08/11 00:08:55;;;;;;;0.00;0.00;;;17.50;99.90;226.50;231333.00;;;;5033332;28;20195;-73
2022/08/11 00:11:35;;;;;;;0.00;0.00;;;17.40;99.90;226.50;231333.00;;;;5033181;28;20198;-73
2022/08/11 00:14:14;;;;;;;0.10;0.10;;;17.40;99.90;226.50;231333.00;;;;5032859;28;20191;-73
2022/08/11 00:16:45;;;;;;;0.00;0.00;;;17.30;99.90;226.50;231333.00;;;;5033391;28;20203;-71
2022/08/11 00:19:21;;;;;;;0.03;0.03;;;17.40;99.90;226.50;231333.00;;;;5032849;28;20629;-73
2022/08/11 00:22:10;;;;;;;0.00;0.00;;;17.40;99.90;226.50;231333.00;;;;5033050;28;20198;-74
2022/08/11 00:24:41;;;;;;;0.05;0.05;;;17.40;99.90;226.50;231333.00;;;;5030519;28;20237;-73
2022/08/11 00:27:34;;;;;;;0.00;0.00;;;17.40;99.90;226.50;231333.00;;;;5016710;28;20313;-72
2022/08/11 00:30:06;;;;;;;0.00;0.00;;;17.20;99.90;226.50;231333.00;;;;5026384;28;20219;-73
2022/08/11 00:32:38;;;;;;;0.00;0.00;;;17.20;99.90;226.50;231333.00;;;;5030675;28;20198;-73
2022/08/11 00:35:13;;;;;;;0.10;0.10;;;17.10;99.90;226.50;231333.00;;;;5032621;28;20694;-72
2022/08/11 00:38:03;;;;;;;0.05;0.05;;;17.10;99.90;226.50;231333.00;;;;5024460;28;20669;-73
2022/08/11 00:40:41;;;;;;;0.00;0.00;;;17.10;99.90;226.50;231333.00;;;;5013014;28;20200;-71
2022/08/11 00:43:22;;;;;;;0.03;0.03;;;17.10;99.90;226.50;231333.00;;;;5029571;28;20199;-72
2022/08/11 00:46:17;;;;;;;0.10;0.10;;;17.10;99.90;226.50;231333.00;;;;5032238;28;20219;-72
2022/08/11 00:48:59;;;;;;;0.10;0.10;;;17.00;99.90;226.50;231333.00;;;;5016522;28;20195;-71
2022/08/11 00:51:53;;;;;;;0.00;0.00;;;17.00;99.90;226.50;231333.00;;;;5032651;28;20198;-72
2022/08/11 00:55:17;;;;;;;0.00;0.00;;;16.90;99.90;226.50;231333.00;;;;5030844;28;20257;-72
2022/08/11 00:58:28;;;;;;;0.00;0.00;;;16.90;99.90;226.50;231333.00;;;;5030315;28;20824;-71
2022/08/11 01:01:13;;;;;;;0.00;0.00;;;16.80;99.90;226.50;231333.00;;;;5028696;28;20207;-71
2022/08/11 01:04:23;;;;;;;0.00;0.00;;;16.70;99.90;226.50;231333.00;;;;5020546;28;20225;-71
2022/08/11 01:07:29;;;;;;;0.00;0.00;;;16.80;99.90;226.50;231333.00;;;;5014747;28;20237;-71
2022/08/11 01:10:52;;;;;;;0.00;0.00;;;16.70;99.90;226.50;231333.00;;;;5012801;28;20203;-71
2022/08/11 01:13:58;;;;;;;0.10;0.10;;;16.70;99.90;226.50;231333.00;;;;5013314;28;20195;-72
2022/08/11 01:17:28;;;;;;;0.10;0.10;;;16.70;99.90;226.50;231333.00;;;;5012271;28;20219;-71
2022/08/11 01:20:55;;;;;;;0.00;0.00;;;16.70;99.90;226.50;231333.00;;;;5012927;28;20195;-70
2022/08/11 01:24:09;;;;;;;0.10;0.10;;;16.80;99.90;226.50;231333.00;;;;5031813;28;20199;-70
2022/08/11 01:27:21;;;;;;;0.00;0.00;;;16.70;99.90;226.50;231333.00;;;;5010946;28;20243;-71
2022/08/11 01:30:36;;;;;;;0.00;0.00;;;16.80;99.90;226.50;231333.00;;;;5032091;28;20207;-71
2022/08/11 01:34:15;;;;;;;0.00;0.00;;;16.80;99.90;226.50;231333.00;;;;5027795;28;20191;-70
2022/08/11 01:37:14;;;;;;;0.00;0.00;;;16.70;99.90;226.50;231333.00;;;;5012274;28;20230;-70
2022/08/11 01:40:39;;;;;;;0.03;0.03;;;16.70;99.90;226.50;231333.00;;;;5026204;28;20206;-71
2022/08/11 01:46:52;;;;;;;0.10;0.10;;;16.70;99.90;226.50;231333.00;;;;5024939;28;20235;-71
2022/08/11 01:49:31;;;;;;;0.05;0.05;;;16.50;99.90;226.50;231333.00;;;;5031547;28;20186;-71
2022/08/11 01:52:31;;;;;;;0.10;0.10;;;16.40;99.90;226.50;231333.00;;;;5012063;28;20192;-71
2022/08/11 01:55:22;;;;;;;0.10;0.10;;;16.40;99.90;226.50;231333.00;;;;5026988;28;20241;-71
2022/08/11 01:58:05;;;;;;;0.00;0.00;;;16.50;99.90;226.50;231333.00;;;;5031073;28;20195;-71
2022/08/11 02:00:57;;;;;;;0.00;0.00;;;16.50;99.90;226.50;231333.00;;;;5031170;28;20197;-71
2022/08/11 02:03:41;;;;;;;0.10;0.10;;;16.50;99.90;226.50;231333.00;;;;5030846;28;20273;-71
2022/08/11 02:09:32;;;;;;;0.10;0.10;;;16.40;99.90;226.50;231333.00;;;;5025070;28;20190;-73
2022/08/11 02:12:14;;;;;;;0.08;0.08;;;16.40;99.90;226.50;231333.00;;;;5031029;28;20218;-72
2022/08/11 02:14:54;;;;;;;0.10;0.10;;;16.10;99.90;226.50;231333.00;;;;5030135;28;20569;-72
2022/08/11 02:17:49;;;;;;;0.10;0.10;;;16.10;99.90;226.50;231333.00;;;;5031163;28;20195;-72
2022/08/11 02:26:40;;;;;;;0.00;0.00;;;16.10;99.90;226.50;231333.00;;;;5011463;28;20223;-72
2022/08/11 02:29:18;;;;;;;0.05;0.05;;;16.00;99.90;226.50;231333.00;;;;5011447;28;20564;-74
2022/08/11 02:35:11;;;;;;;0.10;0.10;;;15.90;99.90;226.50;231333.00;;;;5030940;28;20195;-73
2022/08/11 02:37:50;;;;;;;0.10;0.10;;;15.80;99.90;226.50;231333.00;;;;5030698;28;20190;-73
2022/08/11 02:40:33;;;;;;;0.05;0.05;;;15.80;99.90;226.50;231333.00;;;;5030964;28;20709;-72
2022/08/11 02:43:18;;;;;;;0.00;0.00;;;15.80;99.90;226.50;231333.00;;;;5031303;28;20198;-72
2022/08/11 02:46:03;;;;;;;0.10;0.10;;;15.80;99.90;226.50;231333.00;;;;5031053;28;20280;-72
2022/08/11 02:51:54;;;;;;;0.03;0.03;;;15.60;99.90;226.50;231333.00;;;;5025757;28;20693;-72
2022/08/11 02:54:31;;;;;;;0.10;0.10;;;15.50;99.90;226.50;231333.00;;;;5030052;28;20574;-71
2022/08/11 02:57:09;;;;;;;0.10;0.10;;;15.40;99.90;226.50;231333.00;;;;5027204;28;20714;-71
2022/08/11 02:59:52;;;;;;;0.00;0.00;;;15.30;99.90;226.50;231333.00;;;;5032194;28;20225;-71
2022/08/11 03:02:51;;;;;;;0.00;0.00;;;15.30;99.90;226.50;231333.00;;;;5033114;28;20274;-71
2022/08/11 03:05:45;;;;;;;0.00;0.00;;;15.30;99.90;226.50;231333.00;;;;5033250;28;20569;-71
2022/08/11 03:08:40;;;;;;;0.10;0.10;;;15.30;99.90;226.50;231333.00;;;;5033672;28;20611;-71
2022/08/11 03:17:25;;;;;;;0.10;0.10;;;15.10;99.90;226.50;231333.00;;;;5032678;28;20588;-71
2022/08/11 03:20:10;;;;;;;0.00;0.00;;;15.00;99.90;226.50;231333.00;;;;5029892;28;20206;-72
2022/08/11 03:22:51;;;;;;;0.10;0.10;;;14.90;99.90;226.50;231333.00;;;;5020086;28;20208;-71
2022/08/11 03:25:31;;;;;;;0.00;0.00;;;14.80;99.90;226.50;231333.00;;;;5029272;28;20202;-71
2022/08/11 03:28:14;;;;;;;0.00;0.00;;;14.90;99.90;226.50;231333.00;;;;5033071;28;20195;-71
2022/08/11 03:30:54;;;;;;;0.10;0.10;;;14.70;99.90;226.50;231333.00;;;;5018105;28;20630;-72
2022/08/11 03:36:45;;;;;;;0.10;0.10;;;14.70;99.90;226.50;231333.00;;;;5034261;28;20235;-71
2022/08/11 03:39:49;;;;;;;0.00;0.00;;;14.70;99.90;226.50;231333.00;;;;5031336;28;20207;-70
2022/08/11 03:42:34;;;;;;;0.10;0.10;;;14.70;99.90;226.50;231333.00;;;;5028186;28;20230;-70
2022/08/11 03:45:25;;;;;;;0.10;0.10;;;14.70;99.90;226.50;231333.00;;;;5032990;28;20556;-70
2022/08/11 03:48:12;;;;;;;0.00;0.00;;;14.70;99.90;226.50;231333.00;;;;5018987;28;20412;-70
2022/08/11 03:51:12;;;;;;;0.10;0.10;;;14.60;99.90;226.50;231333.00;;;;5024934;28;20199;-70
2022/08/11 03:54:12;;;;;;;0.10;0.10;;;14.60;99.90;226.50;231333.00;;;;5033194;28;20706;-72
2022/08/11 03:57:48;;;;;;;0.10;0.10;;;14.50;99.90;226.50;231333.00;;;;5032445;28;20690;-71
2022/08/11 04:01:09;;;;;;;0.10;0.10;;;14.40;99.90;226.50;231333.00;;;;5033690;28;20210;-71
2022/08/11 04:04:23;;;;;;;0.10;0.10;;;14.50;99.90;226.50;231333.00;;;;5030909;28;20211;-71
2022/08/11 04:07:27;;;;;;;0.10;0.10;;;14.40;99.90;226.50;231333.00;;;;5031409;28;20215;-71
2022/08/11 04:10:45;;;;;;;0.10;0.10;;;14.30;99.90;226.50;231333.00;;;;5028393;28;20206;-71
2022/08/11 04:15:58;;;;;;;0.10;0.10;;;14.20;99.90;226.50;231333.00;;;;5029726;28;20211;-71
2022/08/11 04:17:18;;;;;;;0.10;0.10;;;14.20;99.90;226.50;231333.00;;;;5031963;28;20230;-70
2022/08/11 04:20:52;;;;;;;0.10;0.10;;;14.10;99.90;226.50;231333.00;;;;5033426;28;20641;-70
2022/08/11 04:24:03;;;;;;;0.10;0.10;;;14.00;99.90;226.50;231333.00;;;;4990260;28;20200;-70
2022/08/11 04:27:27;;;;;;;0.10;0.10;;;13.80;99.90;226.50;231333.00;;;;5051913;28;20226;-71
2022/08/11 04:30:13;;;;;;;0.05;0.05;;;13.80;99.90;226.50;231333.00;;;;5026535;28;20524;-71
2022/08/11 04:33:10;;;;;;;0.10;0.10;;;13.90;99.90;226.50;231333.00;;;;5013687;28;20191;-72
2022/08/11 04:35:57;;;;;;;0.10;0.10;;;14.00;99.90;226.50;231333.00;;;;5032816;28;20237;-70
2022/08/11 04:39:04;;;;;;;0.10;0.10;;;14.00;99.90;226.50;231333.00;;;;5033590;28;20222;-73
2022/08/11 04:45:55;;;;;;;0.00;0.00;;;13.90;99.90;226.50;231333.00;;;;5033462;28;20698;-72
2022/08/11 05:02:59;;;;;;;0.10;0.10;;;13.90;99.90;226.50;231333.00;;;;4988932;28;20192;-71
2022/08/11 05:05:54;;;;;;;0.10;0.10;;;14.00;99.90;226.50;231333.00;;;;5010748;28;20219;-72
2022/08/11 05:09:01;;;;;;;0.10;0.10;;;14.20;99.90;226.50;231333.00;;;;5021769;28;20200;-72
2022/08/11 05:12:07;;;;;;;0.10;0.10;;;14.30;99.90;226.50;231333.00;;;;5016140;28;20191;-71
2022/08/11 05:35:41;;;;;;;0.10;0.10;;;14.90;99.90;226.50;231333.00;;;;5021525;28;20305;-73
2022/08/11 05:58:35;;;;;;;0.03;0.03;;;15.80;99.90;226.50;231333.00;;;;5029310;28;20215;-72
2022/08/11 06:01:10;;;;;;;0.00;0.00;;;15.90;99.90;226.50;231333.00;;;;5012773;28;20568;-73
2022/08/11 06:06:31;;;;;;;0.10;0.10;;;16.10;99.90;226.50;231333.00;;;;5031608;28;20230;-72
2022/08/11 06:09:00;;;;;;;0.10;0.10;;;16.20;99.90;226.50;231333.00;;;;5029277;28;20238;-72
2022/08/11 06:11:31;;;;;;;0.10;0.10;;;16.30;99.90;226.50;231333.00;;;;5032159;28;20609;-72
2022/08/11 06:14:14;;;;;;;0.10;0.10;;;16.40;99.90;226.50;231333.00;;;;5018701;28;20192;-73
2022/08/11 06:16:46;;;;;;;0.00;0.00;;;16.50;99.90;226.50;231333.00;;;;5022531;28;20237;-73
2022/08/11 06:19:17;;;;;;;0.00;0.00;;;16.60;99.90;226.50;231333.00;;;;5035150;28;20206;-73
2022/08/11 06:21:47;;;;;;;0.00;0.00;;;16.70;99.90;226.50;231333.00;;;;5024429;28;20210;-72
2022/08/11 06:24:16;;;;;;;0.05;0.05;;;16.80;99.90;226.50;231333.00;;;;5036481;28;20221;-73
2022/08/11 06:26:51;;;;;;;0.00;0.00;;;16.90;99.90;226.50;231333.00;;;;5029958;28;20234;-70
2022/08/11 06:29:49;;;;;;;0.00;0.00;;;17.00;99.90;226.50;231333.00;;;;5032497;28;20344;-70
2022/08/11 06:32:27;;;;;;;0.00;0.00;;;17.20;99.90;226.50;231333.00;;;;5023122;28;20203;-70
2022/08/11 06:35:12;;;;;;;0.00;0.00;;;17.40;99.90;226.50;231333.00;;;;5031624;28;20211;-71
2022/08/11 06:38:02;;;;;;;0.00;0.00;;;17.50;99.90;226.50;231333.00;;;;5012387;28;20730;-70
2022/08/11 06:41:28;;;;;;;0.00;0.00;;;17.70;99.90;226.50;231333.00;;;;5019451;28;20195;-71
2022/08/11 06:43:49;;;;;;;0.10;0.10;;;17.80;99.90;226.50;231333.00;;;;5027989;28;20190;-71
2022/08/11 06:46:31;;;;;;;0.05;0.05;;;17.90;99.90;226.50;231333.00;;;;5027526;28;20222;-71
2022/08/11 06:49:02;;;;;;;0.00;0.00;;;18.10;99.90;226.50;231333.00;;;;5026276;28;20198;-71
2022/08/11 06:51:37;;;;;;;0.10;0.10;;;18.20;99.90;226.50;231333.00;;;;5030609;28;20689;-71
2022/08/11 06:54:14;;;;;;;0.00;0.00;;;18.30;99.90;226.50;231333.00;;;;5030962;28;20690;-71
2022/08/11 07:02:45;;;;;;;0.00;0.00;;;18.70;99.90;226.50;231333.00;;;;5025187;28;20211;-71
2022/08/11 07:05:23;;;;;;;0.00;0.00;;;18.90;99.90;226.50;231333.00;;;;5038604;28;20194;-71
2022/08/11 07:17:37;;;;;;;0.00;0.00;;;19.50;99.90;226.50;231333.00;;;;5029529;28;20301;-70
2022/08/11 07:28:57;;;;;;;0.03;0.03;;;20.30;99.90;226.50;231333.00;;;;5024292;28;20207;-70
2022/08/11 07:31:40;;;;;;;0.00;0.00;;;20.50;99.90;226.50;231333.00;;;;5043434;28;20196;-70
2022/08/11 07:34:18;;;;;;;0.00;0.00;;;20.70;99.90;226.50;231333.00;;;;5026591;28;20741;-71
2022/08/11 07:36:53;;;;;;;0.00;0.00;;;20.80;99.90;226.50;231333.00;;;;5033969;28;20211;-71
2022/08/11 07:39:27;;;;;;;0.00;0.00;;;21.10;99.90;226.50;231333.00;;;;5033800;28;20230;-71
2022/08/11 07:41:59;;;;;;;0.00;0.00;;;21.20;99.90;226.50;231333.00;;;;5032654;28;20296;-71
2022/08/11 07:44:28;;;;;;;0.00;0.00;;;21.40;99.90;226.50;231333.00;;;;5028232;28;20606;-71
2022/08/11 07:52:39;;;;;;;0.00;0.00;;;21.90;99.90;226.50;231333.00;;;;5033028;28;20191;-71
2022/08/11 07:55:15;;;;;;;0.00;0.00;;;22.00;99.90;226.50;231333.00;;;;5033099;28;20199;-70
2022/08/11 08:17:57;;;;;;;0.00;0.00;;;23.70;97.80;226.50;231333.00;;;;5015462;28;20301;-70
2022/08/11 08:20:49;;;;;;;0.00;0.00;;;23.90;97.00;226.50;231333.00;;;;5013836;28;20207;-70
2022/08/11 08:23:31;;;;;;;0.00;0.00;;;24.10;96.30;226.50;231333.00;;;;5029887;28;20203;-71
2022/08/11 08:26:04;;;;;;;0.00;0.00;;;24.30;96.50;226.50;231333.00;;;;5024180;28;20227;-71
2022/08/11 08:28:34;;;;;;;0.00;0.00;;;24.50;96.00;226.50;231333.00;;;;5028306;28;20195;-71
2022/08/11 08:31:02;;;;;;;0.00;0.00;;;24.70;95.60;226.50;231333.00;;;;5022082;28;20385;-71
2022/08/11 08:33:32;;;;;;;0.00;0.00;;;24.80;94.70;226.50;231333.00;;;;5020881;28;20203;-71
2022/08/11 08:36:15;;;;;;;0.00;0.00;;;25.00;93.30;226.50;231333.00;;;;5041078;28;20215;-70
2022/08/11 08:38:53;;;;;;;0.00;0.00;;;25.30;92.20;226.50;231333.00;;;;5021738;28;20211;-70
2022/08/11 08:41:27;;;;;;;0.00;0.00;;;25.50;91.60;226.50;231333.00;;;;5032766;28;20210;-70
2022/08/11 08:44:02;;;;;;;0.00;0.00;;;25.60;91.40;226.50;231333.00;;;;5013491;28;20196;-70
2022/08/11 08:46:56;;;;;;;0.00;0.00;;;25.70;91.20;226.50;231333.00;;;;5013460;28;20208;-71
2022/08/11 08:49:32;;;;;;;0.00;0.00;;;25.90;90.20;226.50;231333.00;;;;5016703;28;20199;-71
2022/08/11 08:52:07;;;;;;;0.00;0.00;;;26.00;90.00;226.50;231333.00;;;;5014952;28;20206;-71
2022/08/11 08:55:01;;;;;;;0.00;0.00;;;26.20;90.10;226.50;231333.00;;;;5026314;28;20222;-71
2022/08/11 08:57:34;;;;;;;0.00;0.00;;;26.30;87.70;226.50;231333.00;;;;5029313;28;20617;-71
2022/08/11 09:00:10;;;;;;;0.00;0.00;;;26.50;88.60;226.50;231333.00;;;;5012684;28;20230;-71
2022/08/11 09:02:43;;;;;;;0.00;0.00;;;26.60;86.60;226.50;231333.00;;;;5017666;28;20325;-71
2022/08/11 09:05:12;;;;;;;0.00;0.00;;;26.70;86.70;226.50;231333.00;;;;5030099;28;20198;-71
2022/08/11 09:07:41;;;;;;;0.00;0.00;;;26.80;85.20;226.50;231333.00;;;;5022088;28;20197;-71
2022/08/11 09:10:11;;;;;;;0.00;0.00;;;27.00;84.40;226.50;231333.00;;;;5032514;28;20198;-71
2022/08/11 09:12:42;;;;;;;0.00;0.00;;;27.00;83.60;226.50;231333.00;;;;5026098;28;20200;-72
2022/08/11 09:15:15;;;;;;;0.00;0.00;;;27.00;83.60;226.50;231333.00;;;;5032282;28;20207;-71
2022/08/11 09:17:55;;;;;;;0.00;0.00;;;27.10;83.40;226.50;231333.00;;;;5025444;28;20290;-71
2022/08/11 09:20:28;;;;;;;0.00;0.00;;;27.10;83.70;226.50;231333.00;;;;5027735;28;20223;-70
2022/08/11 09:29:00;;;;;;;0.00;0.00;;;27.40;83.10;226.50;231333.00;;;;5020040;28;20743;-72
2022/08/11 09:31:33;;;;;;;0.00;0.00;;;27.40;82.70;226.50;231333.00;;;;5019066;28;20663;-72
2022/08/11 09:34:08;;;;;;;0.00;0.00;;;27.40;83.00;226.50;231333.00;;;;5024445;28;20225;-72
2022/08/11 09:42:17;;;;;;;0.00;0.00;;;27.90;79.40;226.50;231333.00;;;;5017345;28;20611;-72
2022/08/11 09:44:51;;;;;;;0.00;0.00;;;28.10;76.90;226.50;231333.00;;;;5023620;28;20261;-72
2022/08/11 09:47:25;;;;;;;0.00;0.00;;;28.10;76.40;226.50;231333.00;;;;5016659;28;20211;-72
2022/08/11 09:49:59;;;;;;;0.00;0.00;;;28.10;77.70;226.50;231333.00;;;;5010931;28;20206;-73
2022/08/11 09:52:34;;;;;;;0.00;0.00;;;28.10;77.10;226.50;231333.00;;;;5011975;28;20203;-72
2022/08/11 09:55:09;;;;;;;0.00;0.00;;;28.20;76.70;226.50;231333.00;;;;5025488;28;20199;-73
2022/08/11 10:00:31;;;;;;;0.00;0.00;;;28.30;76.00;226.50;231333.00;;;;5022869;28;20718;-72
2022/08/11 10:03:05;;;;;;;0.00;0.00;;;28.40;75.00;226.50;231333.00;;;;5011801;28;20207;-72
2022/08/11 10:08:22;;;;;;;0.00;0.00;;;28.30;75.30;226.50;231333.00;;;;5021475;28;20213;-72
2022/08/11 10:10:50;;;;;;;0.00;0.00;;;28.50;75.30;226.50;231333.00;;;;5031510;28;20187;-73
2022/08/11 10:13:25;;;;;;;0.00;0.00;;;28.50;75.20;226.50;231333.00;;;;5017527;28;20564;-72
2022/08/11 10:16:12;;;;;;;0.00;0.00;;;28.40;75.80;226.50;231333.00;;;;5017659;28;20272;-72
2022/08/11 10:18:51;;;;;;;0.00;0.00;;;28.50;76.00;226.50;231333.00;;;;5027771;28;20309;-73
2022/08/11 10:21:29;;;;;;;0.00;0.00;;;28.70;75.60;226.50;231333.00;;;;5031185;28;20230;-72
2022/08/11 10:26:57;;;;;;;0.00;0.00;;;28.90;74.60;226.50;231333.00;;;;5010153;28;20231;-72
2022/08/11 10:35:29;;;;;;;0.00;0.00;;;29.10;73.80;226.50;231333.00;;;;5011346;28;20262;-70
2022/08/11 10:37:59;;;;;;;0.00;0.00;;;29.10;74.00;226.50;231333.00;;;;5016051;28;20204;-70
2022/08/11 10:43:01;;;;;;;0.00;0.00;;;29.20;73.40;226.50;231333.00;;;;5025227;28;20281;-71
2022/08/11 10:43:39;;;;;;;0.00;0.00;;;29.40;72.30;226.50;231333.00;;;;5022637;28;20199;-71
2022/08/11 10:49:14;;;;;;;0.00;0.00;;;29.40;72.30;226.50;231333.00;;;;5022335;28;20209;-70
2022/08/11 11:00:13;;;;;;;0.00;0.00;;;29.80;71.70;226.50;231333.00;;;;5021012;28;20219;-72
2022/08/11 11:02:44;;;;;;;0.00;0.00;;;29.90;71.60;226.50;231333.00;;;;5034000;28;20194;-71
2022/08/11 11:05:33;;;;;;;0.00;0.00;;;29.90;71.40;226.50;231333.00;;;;5031966;28;20625;-72
2022/08/11 11:10:57;;;;;;;0.00;0.00;;;30.20;70.60;226.50;231333.00;;;;5026418;28;20206;-72
2022/08/11 11:19:17;;;;;;;0.00;0.00;;;30.60;69.60;226.50;231333.00;;;;5025704;28;20199;-72
2022/08/11 11:21:49;;;;;;;0.00;0.00;;;30.30;69.50;226.50;231333.00;;;;5015726;28;20210;-72
2022/08/11 11:24:38;;;;;;;0.00;0.00;;;30.50;69.70;226.50;231333.00;;;;5022491;28;20183;-71
2022/08/11 11:27:20;;;;;;;0.00;0.00;;;30.70;68.80;226.50;231333.00;;;;5034062;28;20226;-71
2022/08/11 11:30:01;;;;;;;0.00;0.00;;;31.00;68.10;226.50;231333.00;;;;5023130;28;20692;-72
2022/08/11 11:32:44;;;;;;;0.00;0.00;;;31.10;67.60;226.50;231333.00;;;;5034493;28;20285;-72
2022/08/11 11:35:36;;;;;;;0.00;0.00;;;31.10;67.60;226.50;231333.00;;;;5030856;28;20222;-71
2022/08/11 11:38:08;;;;;;;0.00;0.00;;;31.10;66.50;226.50;231333.00;;;;5031453;28;20211;-72
2022/08/11 11:41:23;;;;;;;0.00;0.00;;;31.00;67.00;226.50;231333.00;;;;5033158;28;20693;-71
2022/08/11 11:43:35;;;;;;;0.00;0.00;;;31.10;66.60;226.50;231333.00;;;;5019673;28;20199;-71
2022/08/11 11:46:09;;;;;;;0.00;0.00;;;31.20;66.10;226.50;231333.00;;;;5027286;28;20222;-70
2022/08/11 11:48:38;;;;;;;0.00;0.00;;;31.20;66.00;226.50;231333.00;;;;5013660;28;20203;-71
2022/08/11 11:51:07;;;;;;;0.00;0.00;;;31.30;66.20;226.50;231333.00;;;;5017910;28;20205;-70
2022/08/11 11:53:36;;;;;;;0.00;0.00;;;31.40;65.70;226.50;231333.00;;;;5021626;28;20194;-70
2022/08/11 11:56:06;;;;;;;0.00;0.00;;;31.40;65.20;226.50;231333.00;;;;5025606;28;20206;-70
2022/08/11 12:01:24;;;;;;;0.00;0.00;;;31.50;65.40;226.50;231333.00;;;;5018500;28;20214;-71
2022/08/11 12:03:56;;;;;;;0.00;0.00;;;31.60;65.90;226.50;231333.00;;;;5026556;28;20210;-70
2022/08/11 12:06:26;;;;;;;0.00;0.00;;;31.70;65.40;226.50;231333.00;;;;5031315;28;20693;-70
2022/08/11 12:08:58;;;;;;;0.00;0.00;;;31.90;65.50;226.50;231333.00;;;;5026382;28;20203;-70
2022/08/11 12:14:19;;;;;;;0.00;0.00;;;31.90;63.50;226.50;231333.00;;;;5018713;28;20194;-71
2022/08/11 12:16:48;;;;;;;0.00;0.00;;;32.00;63.00;226.50;231333.00;;;;5033208;28;20635;-71
2022/08/11 12:19:22;;;;;;;0.00;0.00;;;31.90;63.00;226.50;231333.00;;;;5022386;28;20278;-71
2022/08/11 12:27:30;;;;;;;0.00;0.00;;;31.50;62.20;226.50;231333.00;;;;5033215;28;20697;-79
2022/08/11 12:30:02;;;;;;;0.00;0.00;;;31.70;62.90;226.50;231333.00;;;;5031817;28;20209;-74
2022/08/11 12:32:34;;;;;;;0.00;0.00;;;31.70;63.10;226.50;231333.00;;;;5033275;28;20562;-75
2022/08/11 12:35:02;;;;;;;0.00;0.00;;;31.70;62.50;226.50;231333.00;;;;5026527;28;20257;-74
2022/08/11 12:37:35;;;;;;;0.00;0.00;;;32.00;61.60;226.50;231333.00;;;;5032697;28;20619;-74
2022/08/11 12:46:11;;;;;;;0.00;0.00;;;32.00;61.10;226.50;231333.00;;;;5025371;28;20236;-74
2022/08/11 12:54:56;;;;;;;0.00;0.00;;;32.00;60.70;226.50;231333.00;;;;5026841;28;20202;-74
2022/08/11 13:05:59;;;;;;;0.00;0.00;;;32.10;59.70;226.50;231333.00;;;;5012976;28;20211;-74
2022/08/11 13:08:31;;;;;;;0.00;0.00;;;32.10;59.60;226.50;231333.00;;;;5014099;28;20195;-74
2022/08/11 13:13:53;;;;;;;0.00;0.00;;;32.00;59.50;226.50;231333.00;;;;5026858;28;20203;-73
2022/08/11 13:16:30;;;;;;;0.00;0.00;;;31.80;59.70;226.50;231333.00;;;;5018492;28;20717;-74
2022/08/11 13:19:00;;;;;;;0.00;0.00;;;31.90;59.90;226.50;231333.00;;;;5018105;28;20250;-74
2022/08/11 13:21:31;;;;;;;0.00;0.00;;;32.00;59.90;226.50;231333.00;;;;5016410;28;20730;-74
2022/08/11 13:24:01;;;;;;;0.00;0.00;;;32.10;59.50;226.50;231333.00;;;;5031537;28;20677;-74
2022/08/11 13:26:37;;;;;;;0.00;0.00;;;32.10;59.70;226.50;231333.00;;;;5013037;28;20265;-74
2022/08/11 13:29:23;;;;;;;0.00;0.00;;;32.10;59.50;226.50;231333.00;;;;5029022;28;20218;-74
2022/08/11 13:31:57;;;;;;;0.00;0.00;;;32.00;59.00;226.50;231333.00;;;;5012372;28;20235;-73
2022/08/11 13:34:29;;;;;;;0.00;0.00;;;31.90;58.70;226.50;231333.00;;;;5018215;28;20216;-74
2022/08/11 13:37:01;;;;;;;0.00;0.00;;;31.80;58.80;226.50;231333.00;;;;5011699;28;20278;-74
2022/08/11 13:39:33;;;;;;;0.00;0.00;;;31.60;58.40;226.50;231333.00;;;;5031287;28;20426;-74
2022/08/11 13:42:04;;;;;;;0.00;0.00;;;31.50;58.60;226.50;231333.00;;;;5017741;28;20226;-73
2022/08/11 13:44:38;;;;;;;0.00;0.00;;;31.40;58.70;226.50;231333.00;;;;5030084;28;20222;-73
2022/08/11 13:47:13;;;;;;;0.00;0.00;;;31.30;58.60;226.50;231333.00;;;;5025567;28;20211;-74
2022/08/11 13:49:42;;;;;;;0.00;0.00;;;31.20;58.90;226.50;231333.00;;;;5024685;28;20213;-74
2022/08/11 13:52:14;;;;;;;0.00;0.00;;;31.20;59.00;226.50;231333.00;;;;5016559;28;20208;-73
2022/08/11 13:54:46;;;;;;;0.00;0.00;;;31.20;59.20;226.50;231333.00;;;;5030070;28;20195;-74
2022/08/11 13:57:17;;;;;;;0.00;0.00;;;31.20;59.00;226.50;231333.00;;;;5030461;28;20215;-73
2022/08/11 14:00:12;;;;;;;0.00;0.00;;;31.10;59.00;226.50;231333.00;;;;5031088;28;20534;-73
2022/08/11 14:02:57;;;;;;;0.00;0.00;;;31.10;58.70;226.50;231333.00;;;;5010054;28;20202;-73
2022/08/11 14:05:29;;;;;;;0.00;0.00;;;31.10;59.00;226.50;231333.00;;;;5019667;28;20196;-74
2022/08/11 14:08:03;;;;;;;0.00;0.00;;;31.10;58.30;226.50;231333.00;;;;5027605;28;20203;-73
2022/08/11 14:10:34;;;;;;;0.00;0.00;;;31.00;58.30;226.50;231333.00;;;;5030042;28;20685;-74
2022/08/11 14:16:03;;;;;;;0.00;0.00;;;30.70;58.90;226.50;231333.00;;;;5031728;28;20211;-73
2022/08/11 14:18:34;;;;;;;0.00;0.00;;;30.70;58.90;226.50;231333.00;;;;5031732;28;20205;-73
2022/08/11 14:23:56;;;;;;;0.00;0.00;;;30.60;58.50;226.50;231333.00;;;;5031839;28;20206;-73
2022/08/11 14:26:30;;;;;;;0.00;0.00;;;30.60;58.70;226.50;231333.00;;;;5032525;28;20214;-73
2022/08/11 14:29:04;;;;;;;0.00;0.00;;;30.60;59.20;226.50;231333.00;;;;5034218;28;20196;-74
2022/08/11 14:31:37;;;;;;;0.00;0.00;;;30.60;59.30;226.50;231333.00;;;;5035662;28;20277;-74
2022/08/11 14:34:13;;;;;;;0.00;0.00;;;30.60;59.00;226.50;231333.00;;;;5036043;28;20194;-73
2022/08/11 14:36:45;;;;;;;0.00;0.00;;;30.60;59.00;226.50;231333.00;;;;5034788;28;20637;-73
2022/08/11 14:39:16;;;;;;;0.00;0.00;;;30.50;59.10;226.50;231333.00;;;;5031346;28;20195;-73
2022/08/11 14:47:35;;;;;;;0.00;0.00;;;30.60;59.90;226.50;231333.00;;;;5034909;28;20206;-73
2022/08/11 14:50:08;;;;;;;0.00;0.00;;;30.60;60.80;226.50;231333.00;;;;5033417;28;20725;-73
2022/08/11 14:52:47;;;;;;;0.00;0.00;;;30.50;60.30;226.50;231333.00;;;;5028067;28;20568;-74
2022/08/11 14:58:04;;;;;;;0.00;0.00;;;30.40;61.30;226.50;231333.00;;;;5037730;28;20203;-74
2022/08/11 15:00:34;;;;;;;0.00;0.00;;;30.40;61.90;226.50;231333.00;;;;5025902;28;20227;-74
2022/08/11 15:03:10;;;;;;;0.00;0.00;;;30.40;62.30;226.50;231333.00;;;;5017752;28;20239;-74
2022/08/11 15:05:47;;;;;;;0.00;0.00;;;30.50;62.30;226.50;231333.00;;;;5034197;28;20753;-74
2022/08/11 15:14:09;;;;;;;0.00;0.00;;;30.50;60.80;226.50;231333.00;;;;5026672;28;20207;-74
2022/08/11 15:19:32;;;;;;;0.00;0.00;;;30.40;59.70;226.50;231333.00;;;;5038738;28;20203;-74
2022/08/11 15:24:58;;;;;;;0.00;0.00;;;30.30;60.00;226.50;231333.00;;;;5041187;28;20199;-73
2022/08/11 15:38:51;;;;;;;0.00;0.00;;;30.20;62.00;226.50;231333.00;;;;5037286;28;20631;-74
2022/08/11 15:47:38;;;;;;;0.00;0.00;;;30.00;61.90;226.50;231333.00;;;;5035292;28;20219;-75
2022/08/11 15:50:15;;;;;;;0.00;0.00;;;30.00;61.40;226.50;231333.00;;;;5043556;28;20202;-75
2022/08/11 15:52:55;;;;;;;0.00;0.00;;;29.90;61.70;226.50;231333.00;;;;5039680;28;20199;-75
2022/08/11 15:55:28;;;;;;;0.00;0.00;;;29.80;61.70;226.50;231333.00;;;;5031786;28;20199;-76
2022/08/11 16:06:45;;;;;;;0.00;0.00;;;29.70;61.50;226.50;231333.00;;;;5034039;28;20635;-74
2022/08/11 16:09:31;;;;;;;0.00;0.00;;;29.70;61.20;226.50;231333.00;;;;5043331;28;20456;-74
2022/08/11 16:12:22;;;;;;;0.00;0.00;;;29.50;60.80;226.50;231333.00;;;;5033815;28;20212;-73
2022/08/11 16:17:52;;;;;;;0.00;0.00;;;29.20;61.10;226.50;231333.00;;;;5033285;28;20270;-74
2022/08/11 16:20:24;;;;;;;0.00;0.00;;;29.10;62.20;226.50;231333.00;;;;5034476;28;20658;-72